createdAt,value
2022-11-19T00:00:47.630Z,12.32
2022-11-19T00:05:50.492Z,11.98
2022-11-19T00:10:52.784Z,11.73
2022-11-19T00:15:54.948Z,11.43
2022-11-19T00:21:03.443Z,12.70
2022-11-19T00:26:15.072Z,11.80
2022-11-19T00:31:17.407Z,11.55
2022-11-19T00:36:19.137Z,11.77
2022-11-19T00:41:20.810Z,12.48
2022-11-19T00:46:30.965Z,12.70
2022-11-19T00:51:33.279Z,13.50
2022-11-19T00:56:34.981Z,11.60
2022-11-19T01:01:36.748Z,11.47
2022-11-19T01:06:38.459Z,11.57
2022-11-19T01:11:40.328Z,12.53
2022-11-19T01:16:42.437Z,12.55
2022-11-19T01:21:44.109Z,12.40
2022-11-19T01:26:46.370Z,11.17
2022-11-19T01:31:50.661Z,13.23
2022-11-19T01:36:53.187Z,11.90
2022-11-19T01:41:55.336Z,13.07
2022-11-19T01:46:57.472Z,12.33
2022-11-19T01:52:02.940Z,13.20
2022-11-19T01:57:10.543Z,14.00
2022-11-19T02:02:13.583Z,13.73
2022-11-19T02:07:16.722Z,13.23
2022-11-19T02:12:49.539Z,11.80
2022-11-19T02:18:11.038Z,12.77
2022-11-19T02:23:34.479Z,13.67
2022-11-19T02:28:46.628Z,13.13
2022-11-19T02:33:56.362Z,13.27
2022-11-19T02:39:06.607Z,13.82
2022-11-19T02:44:40.568Z,11.57
2022-11-19T02:49:47.487Z,13.17
2022-11-19T02:54:49.277Z,12.27
2022-11-19T03:00:17.334Z,14.07
2022-11-19T03:05:23.351Z,13.32
2022-11-19T03:10:31.481Z,13.50
2022-11-19T03:15:51.673Z,13.00
2022-11-19T03:21:04.335Z,12.63
2022-11-19T03:26:40.740Z,12.15
2022-11-19T03:31:47.610Z,13.77
2022-11-19T03:36:53.539Z,12.18
2022-11-19T03:41:56.964Z,12.03
2022-11-19T03:47:08.283Z,12.90
2022-11-19T03:52:12.745Z,11.97
2022-11-19T03:57:20.132Z,11.70
2022-11-19T04:02:22.069Z,13.37
2022-11-19T04:07:24.471Z,14.00
2022-11-19T04:12:26.165Z,12.17
2022-11-19T04:17:27.907Z,13.57
2022-11-19T04:22:29.579Z,14.83
2022-11-19T04:27:31.244Z,13.67
2022-11-19T04:32:32.908Z,14.27
2022-11-19T04:37:34.656Z,12.97
2022-11-19T04:42:36.317Z,13.77
2022-11-19T04:47:38.011Z,12.67
2022-11-19T04:52:41.305Z,13.30
2022-11-19T04:57:43.379Z,12.40
2022-11-19T05:02:45.674Z,12.63
2022-11-19T05:07:47.411Z,12.90
2022-11-19T05:12:49.504Z,13.90
2022-11-19T05:17:51.228Z,14.57
2022-11-19T05:22:53.051Z,13.40
2022-11-19T05:27:54.804Z,12.20
2022-11-19T05:32:56.779Z,13.88
2022-11-19T05:37:58.489Z,13.40
2022-11-19T05:43:06.228Z,12.77
2022-11-19T05:48:07.906Z,13.05
2022-11-19T05:53:10.173Z,12.90
2022-11-19T05:58:13.780Z,12.97
2022-11-19T06:03:15.562Z,14.33
2022-11-19T06:08:17.578Z,14.23
2022-11-19T06:13:19.323Z,13.20
2022-11-19T06:18:21.011Z,12.83
2022-11-19T06:23:22.677Z,12.57
2022-11-19T06:28:24.403Z,14.55
2022-11-19T06:33:26.091Z,15.93
2022-11-19T06:38:27.781Z,18.77
2022-11-19T06:43:29.471Z,14.30
2022-11-19T06:48:31.194Z,14.53
2022-11-19T06:53:33.284Z,15.43
2022-11-19T06:58:35.121Z,16.23
2022-11-19T07:03:36.861Z,14.55
2022-11-19T07:08:39.482Z,14.40
2022-11-19T07:13:59.060Z,14.77
2022-11-19T07:19:03.091Z,15.20
2022-11-19T07:24:07.472Z,16.17
2022-11-19T07:29:11.338Z,14.87
2022-11-19T07:34:12.986Z,14.57
2022-11-19T07:39:14.660Z,16.27
2022-11-19T07:44:16.372Z,16.90
2022-11-19T07:49:18.714Z,19.43
2022-11-19T07:54:20.743Z,17.90
2022-11-19T07:59:22.678Z,18.50
2022-11-19T08:04:27.006Z,17.63
2022-11-19T08:09:28.743Z,21.90
2022-11-19T08:14:30.436Z,30.60
2022-11-19T08:19:32.146Z,28.27
2022-11-19T08:24:33.796Z,29.13
2022-11-19T08:29:35.489Z,21.17
2022-11-19T08:34:37.244Z,20.83
2022-11-19T08:39:40.429Z,27.07
2022-11-19T08:44:42.099Z,25.00
2022-11-19T08:49:43.758Z,19.40
2022-11-19T08:54:45.451Z,18.30
2022-11-19T08:59:47.201Z,20.43
2022-11-19T09:04:48.970Z,16.50
2022-11-19T09:09:50.674Z,16.83
2022-11-19T09:14:52.347Z,15.75
2022-11-19T09:19:54.035Z,14.73
2022-11-19T09:24:55.756Z,14.73
2022-11-19T09:29:57.442Z,14.63
2022-11-19T09:34:59.107Z,15.35
2022-11-19T09:40:00.930Z,13.50
2022-11-19T09:45:33.333Z,14.20
2022-11-19T09:50:53.074Z,15.13
2022-11-19T09:55:55.310Z,13.88
2022-11-19T10:00:57.429Z,14.30
2022-11-19T10:06:18.000Z,13.57
2022-11-19T10:11:31.790Z,14.90
2022-11-19T10:16:42.055Z,13.45
2022-11-19T10:22:09.895Z,13.82
2022-11-19T10:27:19.542Z,18.60
2022-11-19T10:32:24.176Z,14.63
2022-11-19T10:37:32.159Z,16.73
2022-11-19T10:42:33.794Z,15.02
2022-11-19T10:47:44.470Z,15.48
2022-11-19T10:52:53.055Z,14.43
2022-11-19T10:58:22.845Z,12.02
2022-11-19T11:03:34.797Z,13.43
2022-11-19T11:08:52.954Z,14.80
2022-11-19T11:14:18.747Z,14.02
2022-11-19T11:19:22.005Z,14.13
2022-11-19T11:24:36.576Z,14.85
2022-11-19T11:29:38.258Z,14.40
2022-11-19T11:34:43.945Z,12.80
2022-11-19T11:39:50.959Z,11.13
2022-11-19T11:44:54.356Z,9.45
2022-11-19T11:50:06.739Z,8.75
2022-11-19T11:55:31.713Z,9.85
2022-11-19T12:00:40.806Z,10.70
2022-11-19T12:06:04.356Z,8.60
2022-11-19T12:11:12.058Z,7.95
2022-11-19T12:16:42.554Z,7.80
2022-11-19T12:21:56.625Z,8.23
2022-11-19T12:27:01.090Z,6.85
2022-11-19T12:32:17.861Z,7.85
2022-11-19T12:37:33.578Z,8.00
2022-11-19T12:43:02.043Z,7.57
2022-11-19T12:48:13.342Z,6.78
2022-11-19T12:53:27.795Z,5.72
2022-11-19T12:58:35.468Z,4.43
2022-11-19T13:03:49.271Z,3.58
2022-11-19T13:09:34.670Z,4.20
2022-11-19T13:14:54.645Z,3.90
2022-11-19T13:20:01.379Z,4.18
2022-11-19T13:25:05.472Z,4.28
2022-11-19T13:30:17.833Z,4.65
2022-11-19T13:35:33.130Z,5.00
2022-11-19T13:40:59.114Z,4.43
2022-11-19T13:46:26.656Z,4.68
2022-11-19T13:51:47.701Z,4.20
2022-11-19T13:56:51.630Z,5.13
2022-11-19T14:02:10.999Z,5.22
2022-11-19T14:07:22.892Z,5.80
2022-11-19T14:12:52.589Z,4.97
2022-11-19T14:18:20.801Z,4.90
2022-11-19T14:24:06.868Z,5.65
2022-11-19T14:29:40.380Z,5.05
2022-11-19T14:34:46.937Z,5.55
2022-11-19T14:39:57.361Z,5.47
2022-11-19T14:45:02.988Z,4.97
2022-11-19T14:50:09.026Z,5.65
2022-11-19T14:55:16.707Z,5.57
2022-11-19T15:00:18.327Z,5.50
2022-11-19T15:05:21.531Z,5.25
2022-11-19T15:10:27.577Z,5.47
2022-11-19T15:15:38.178Z,6.63
2022-11-19T15:21:14.013Z,7.03
2022-11-19T15:26:41.439Z,6.95
2022-11-19T15:32:14.185Z,8.00
2022-11-19T15:37:19.177Z,7.63
2022-11-19T15:42:42.071Z,10.90
2022-11-19T15:48:18.272Z,9.40
2022-11-19T15:53:24.419Z,8.90
2022-11-19T15:58:30.386Z,8.38
2022-11-19T16:03:32.663Z,7.67
2022-11-19T16:08:35.086Z,9.98
2022-11-19T16:13:55.295Z,9.80
2022-11-19T16:18:56.971Z,9.60
2022-11-19T16:24:18.993Z,11.43
2022-11-19T16:29:23.615Z,11.37
2022-11-19T16:34:29.952Z,11.38
2022-11-19T16:39:33.152Z,12.00
2022-11-19T16:44:35.249Z,14.27
2022-11-19T16:49:49.213Z,15.07
2022-11-19T16:54:51.310Z,15.53
2022-11-19T16:59:59.435Z,14.97
2022-11-19T17:05:12.448Z,14.13
2022-11-19T17:10:14.074Z,13.03
2022-11-19T17:15:44.854Z,20.87
2022-11-19T17:20:50.932Z,18.93
2022-11-19T17:26:08.274Z,30.03
2022-11-19T17:31:19.610Z,30.33
2022-11-19T17:36:22.411Z,32.00
2022-11-19T17:41:46.139Z,32.17
2022-11-19T17:46:47.922Z,28.00
2022-11-19T17:51:49.604Z,24.80
2022-11-19T17:56:51.262Z,26.23
2022-11-19T18:01:53.518Z,25.15
2022-11-19T18:06:55.222Z,24.55
2022-11-19T18:11:56.916Z,24.93
2022-11-19T18:16:58.697Z,24.60
2022-11-19T18:22:00.447Z,23.33
2022-11-19T18:27:02.179Z,20.67
2022-11-19T18:32:03.919Z,19.10
2022-11-19T18:37:05.712Z,22.53
2022-11-19T18:42:10.868Z,23.70
2022-11-19T18:47:14.754Z,23.40
2022-11-19T18:52:16.406Z,20.87
2022-11-19T18:57:18.067Z,21.35
2022-11-19T19:02:19.744Z,24.80
2022-11-19T19:07:21.571Z,26.97
2022-11-19T19:12:23.308Z,26.37
2022-11-19T19:17:25.134Z,28.00
2022-11-19T19:22:26.913Z,29.00
2022-11-19T19:27:28.680Z,26.13
2022-11-19T19:32:30.393Z,25.20
2022-11-19T19:37:32.044Z,23.73
2022-11-19T19:42:38.439Z,23.35
2022-11-19T19:47:42.664Z,25.50
2022-11-19T19:52:44.315Z,25.13
2022-11-19T19:57:45.977Z,21.27
2022-11-19T20:02:49.020Z,22.57
2022-11-19T20:07:50.680Z,26.20
2022-11-19T20:13:10.637Z,24.87
2022-11-19T20:18:12.292Z,26.00
2022-11-19T20:23:13.964Z,25.17
2022-11-19T20:28:15.645Z,25.08
2022-11-19T20:33:17.778Z,26.80
2022-11-19T20:38:19.826Z,28.17
2022-11-19T20:43:45.803Z,23.50
2022-11-19T20:48:50.611Z,22.80
2022-11-19T20:53:52.581Z,21.10
2022-11-19T20:58:54.522Z,21.13
2022-11-19T21:03:59.732Z,21.37
2022-11-19T21:09:01.731Z,19.67
2022-11-19T21:14:04.095Z,22.83
2022-11-19T21:19:05.804Z,21.40
2022-11-19T21:24:07.832Z,23.10
2022-11-19T21:29:09.538Z,21.90
2022-11-19T21:34:17.687Z,23.20
2022-11-19T21:39:20.472Z,25.27
2022-11-19T21:44:22.572Z,23.53
2022-11-19T21:49:24.381Z,21.88
2022-11-19T21:54:26.127Z,22.00
2022-11-19T21:59:27.779Z,21.07
2022-11-19T22:04:29.498Z,21.93
2022-11-19T22:09:31.386Z,18.60
2022-11-19T22:14:33.039Z,18.33
2022-11-19T22:19:36.003Z,18.17
2022-11-19T22:24:37.683Z,14.90
2022-11-19T22:29:39.512Z,15.57
2022-11-19T22:34:41.181Z,15.87
2022-11-19T22:39:43.950Z,15.17
2022-11-19T22:44:45.648Z,16.92
2022-11-19T22:49:47.348Z,13.80
2022-11-19T22:54:49.101Z,16.27
2022-11-19T22:59:50.773Z,16.33
2022-11-19T23:04:52.899Z,18.47
2022-11-19T23:09:54.566Z,17.80
2022-11-19T23:14:56.529Z,19.00
2022-11-19T23:20:03.106Z,18.10
2022-11-19T23:25:06.567Z,21.50
2022-11-19T23:30:08.751Z,21.77
2022-11-19T23:35:10.408Z,21.03
2022-11-19T23:40:12.232Z,18.23
2022-11-19T23:45:13.932Z,17.77
2022-11-19T23:50:15.660Z,19.77
2022-11-19T23:55:17.320Z,18.07
